< < Back
Terminal Aerodrome Forecast


Current Version              Previous Versions:   1  2  3  4  5  6  7  8  9  

Terminal Aerodrome Forecast

038
FTUS44 KMOB 282330
TAFMOB
TAF
KMOB 282330Z 2900/2924 20006KT P6SM SCT200
     FM290600 12002KT 6SM BR BKN007
     FM290900 13002KT 4SM BR OVC004
     FM291400 14006KT P6SM BKN020
     FM291700 17011KT P6SM SCT035=

Latest METAR

763
SAUS80 KWBC 291400
MTRMOB
METAR KMOB 291356Z 13011KT 7SM FEW080 SCT250 26/18 A2999 RMK AO2 SLP151
T02560183


USA.gov is the U.S. government's official web portal to all federal, state and local government web resources and services.